Timeline UpdatesTrip UpdatesNews PostsPvt PostsTravel TipsAdmin PostsConv PostsFollowed PostsChat RequestsBlog PostsPNR Posts

Disclaimer
Search
 
 
Fri Aug 22, 2014 11:24:52 ISTHomeTrainsΣChainsAtlasPNRForumGalleryNewsFAQTripsMembersLoginFeedback
No Recent News for this Train
Other Trains in the News **new
Latest...
One Sleeper and unreserved coach for Nandurbar from 59441 Mumbai Ahmedabad passenger is attached to this train at Surat.
Fri Feb 04, 2011 (12:38PM)
⇐ Return Journey: Train# 59076

59075/Surat - Bhusaval Passenger

Feb 23 2014 (12:44AM)
Change Departure Station:
Change Arrival Station:
Post a Train Travel TipPost a Train Travel Tip **new
Post a Comment/Question/Picture/VideoPost a Comment/Question/Picture/Video
Pantry/Catering
✕ NO Pantry Car
✓ Catering Avbl
RSA - Rake Sharing
Rake/Coach Composition
Loco
BSL WAM4.
News    PNR    Forum    Time-Table    Availability    Fare Chart    Map    Arr/Dep History    Trips    Gallery    ΣChains    X/O    Timeline    
Travel Time: 11h 29m    41 halts    Distance: 319 km    Avg Speed: 27 km/hr
Type: Passenger
Zone: WR/Western
Departs @ 07:51 (Avg 33m late)
Platform# 1
SMTWTFS
Chalthan/CHM 
Arrives @ 19:20 (Avg 12m late)
Platform# 1
SMTWTFS
Bhusaval Junction/BSL 

41 halts. 43 intermediate Stations between Chalthan and Bhusaval Junction

Show ALL intermediate Stations  Show Old Time-Table

#CodeStation NameX/OArrivesAvgDepartsAvgHaltPFDay#KmSpeedElevZoneAddress
1STSurat (4)  -07:20+241-15.53019mWRSurat 395001, Gujarat
2UDNUdhna Junction (3)O  07:28+1807:30+252m31-11.53516mWRUdhna 394210, Gujarat
3NOLNiyol (1)  07:41-07:43-2m11-5.05018mWRSurat, Gujarat
4CHM»Chalthan (1)»O  07:49+2607:51+332m110.03823mWRKadodra, Gujarat
5BGMRBagumra (1)  07:58-07:59-1m--14.45122mWRNational Highway 6, Gujarat
6GGARGangadhara (1)X  08:05+4108:07+452m119.52727mWRKareli, Gujarat
7BIYBardoli (2)X  08:21+4008:23+492m--115.75135mWRNear Bardoli Sugar Factory Bardoli, Gujarat
8TBVTimbarva (1)  08:31+5108:33+532m1122.54135mWRTimberva, Gujarat
9MGRLMangrolla (1)O  08:37-08:39-2m1125.24636mWRPipariya, Gujarat
10MIDMadhi (1)  08:46+5308:48+542m1130.53645mWRMadhi, Gujarat
11KRAIKaher (1)O  08:57-08:59-2m1135.94655mWRKaher, Gujarat
12LTVLotarva (1)  09:03+5309:05+532m1139.02657mWRSankr Main Rd, Gujarat
13VYAVyara (2)  09:20+5009:22+522m2145.54990mWRVyara, Gujarat
14KKRDKikakui Road (1)  09:36+5009:38+492m1157.038114mWRGujarat 394650 ?, Gujarat
15DSDDosvada (1)  09:42-09:44-2m1159.646121mWRNational Highway 6, Gujarat
16USDUkai Songadh (2)XO  09:50+4809:52+512m1164.262139mWRSongadh, Gujarat
17LKKDLakkad Kot (1)  09:59+5510:01+542m1171.437122mWRGujarat 394375 ?, Gujarat
18BBAIBhadbhunja (1)O  10:09+5510:11+1:012m1176.333126mWRGujarat 394375 ?, Gujarat
19NWUNavapur (2)  10:31+5510:33+592m--187.457124mWRNavapur, Gujarat
20KFFKolda (1)  10:44+1:0310:46+1:022m1197.848160mWRGangapur, Maharashtra
21CPDChinchpada (1)O  10:54+1:0610:56+1:232m11104.159178mWRGangapur, Maharashtra
22KHTGKhatgaon (1)O  11:06+1:2611:08+1:322m11113.928178mWRState Highway 5, Maharashtra
23KBHKhandbara (1)  11:27+1:2611:29+1:252m11122.716198mWRKhandbara, Maharashtra
24DWDDhekwad (1)  12:20+5512:22+552m11136.324209mWRState Highway 5, Maharashtra
25NDBNandurbar (3)XO  12:45+3214:10+2785m--1145.334203mWRNandurbar, Maharashtra
26CUEChoupale (1)  14:19+3814:21+422m11150.552208mWRNehru Nagar, Maharashtra
27TISITisi (1)  14:30+3814:32+382m11158.244185mWRState Highway 7, Maharashtra
28RNLRanala (1)X  14:45+3614:47+442m11167.755164mWRState Highway 6, Maharashtra
29DDEDondaicha (2)  15:00+3415:02+342m11179.738163mWRDondaicha, Maharashtra
30VKHVikhran (1)  15:15+4515:17+462m11187.941176mWRMSH1, Maharashtra
31SNSLSonshelu (1)  15:24-15:26-2m11192.732185mWRMSH1, Maharashtra
32SNKSindkheda (1)  15:38+3915:40+392m11199.150178mWRState Highway 11, Maharashtra
33HOLHol (1)X  15:50+3915:52+392m11207.425185mWRState Highway 6, Maharashtra
34NDNNardana (1)  16:04+2616:06+262m11212.451184mWRNardana, Maharashtra
35BEWBetavad (1)  16:14-16:16-2m11219.156178mWRState Highway 6, Maharashtra
36PDPPadse  16:22+3216:24+322m--1224.736181mWRDhule, Maharashtra
37BRTKBhortexX  16:37+2916:39+322m--1232.615180mWRVadhoda, Maharashtra
38ANAmalner (2)X  17:12+1117:15+103m11240.762188mWRAmalner, Maharashtra
39TKHETakarkhede (1)  17:26+1117:28+102m11252.144203mWRState Highway 6, Maharashtra
40BHNEBhone (2)X  17:36-17:38-2m--1258.051196mWRState Highway 185, Maharashtra
41DXGDharangaon (2)  17:47+1217:49+122m--1265.648217mWRDharangaon, Maharashtra
42CHLKChavalkhede  17:58+1518:00+142m--1272.749196mWRState Highway 185, Maharashtra
43PLDPaldhi (2)  18:14+1218:16+122m--1284.225208mWRPaldhi, Maharashtra
44JLJalgaon Junction (4)  18:43+918:45+102m41295.346213mCRJalgaon 425001, Maharashtra
45BDIBhadli (2)  19:00+3319:02+342m--1306.842211mCRBhadli, Maharashtra
46BSL•Bhusaval Junction (8)•  19:20+12-11319.4-208mCRBhusaval 425201, Maharashtra
Scroll to Top
Scroll to Bottom